Time;durP1;ratioP1;P1;durP2;ratioP2;P2;SDS_P1;SDS_P2;PMS_P1;PMS_P2;Temp;Humidity;BMP_temperature;BMP_pressure;BME280_temperature;BME280_humidity;BME280_pressure;Samples;Min_cycle;Max_cycle;Signal;HPM_P1;HPM_P2
2021/09/13 00:01:27;;;;;;;3.50;2.73;;;;;;;-139.38;100.00;63230.50;5009197;28;20244;-65
2021/09/13 00:04:53;;;;;;;2.80;2.37;;;;;;;-139.38;100.00;63230.50;5011909;28;20688;-65
2021/09/13 00:08:19;;;;;;;2.53;2.10;;;;;;;-139.38;100.00;63230.50;5008059;28;20227;-65
2021/09/13 00:11:45;;;;;;;4.80;2.40;;;;;;;-139.38;100.00;63230.50;5011819;28;20232;-64
2021/09/13 00:15:11;;;;;;;4.43;2.43;;;;;;;-139.38;100.00;63230.50;5011694;28;20211;-64
2021/09/13 00:18:38;;;;;;;3.20;2.37;;;;;;;-139.38;100.00;63230.50;5012100;28;20214;-64
2021/09/13 00:22:04;;;;;;;2.53;2.33;;;;;;;-139.38;100.00;63230.50;5012759;28;20242;-64
2021/09/13 00:25:30;;;;;;;3.00;2.33;;;;;;;-139.38;100.00;63230.50;5009255;28;20666;-64
2021/09/13 00:28:56;;;;;;;3.70;2.50;;;;;;;-139.38;100.00;63230.50;5009192;28;20661;-65
2021/09/13 00:32:22;;;;;;;5.40;2.73;;;;;;;-139.38;100.00;63230.50;5011631;28;20232;-64
2021/09/13 00:35:49;;;;;;;2.70;2.33;;;;;;;-139.38;100.00;63230.50;5011115;28;20208;-64
2021/09/13 00:39:15;;;;;;;3.37;2.80;;;;;;;-139.38;100.00;63230.50;5007599;28;20208;-65
2021/09/13 00:42:40;;;;;;;3.63;2.73;;;;;;;-139.38;100.00;63230.50;5011223;28;20228;-65
2021/09/13 00:46:07;;;;;;;4.30;2.83;;;;;;;-139.38;100.00;63230.50;5011047;28;20559;-65
2021/09/13 00:49:33;;;;;;;5.23;2.90;;;;;;;-139.38;100.00;63230.50;5011750;28;20211;-64
2021/09/13 00:53:00;;;;;;;4.73;2.77;;;;;;;-139.38;100.00;63230.50;5011224;28;20252;-64
2021/09/13 00:56:26;;;;;;;3.57;2.70;;;;;;;-139.38;100.00;63230.50;5008579;28;20207;-64
2021/09/13 00:59:52;;;;;;;3.27;2.60;;;;;;;-139.38;100.00;63230.50;5011950;28;20206;-64
2021/09/13 01:03:18;;;;;;;3.63;3.20;;;;;;;-139.38;100.00;63230.50;5010977;28;20235;-64
2021/09/13 01:06:44;;;;;;;3.33;2.77;;;;;;;-139.38;100.00;63230.50;5011016;28;20211;-64
2021/09/13 01:10:11;;;;;;;3.40;2.70;;;;;;;-139.38;100.00;63230.50;5011633;28;20204;-65
2021/09/13 01:13:37;;;;;;;4.67;2.80;;;;;;;-139.38;100.00;63230.50;5009119;28;20208;-64
2021/09/13 01:17:04;;;;;;;2.90;2.60;;;;;;;-139.38;100.00;63230.50;5010506;28;20215;-64
2021/09/13 01:20:30;;;;;;;3.03;2.53;;;;;;;-139.38;100.00;63230.50;5012484;28;20679;-64
2021/09/13 01:24:00;;;;;;;3.30;2.80;;;;;;;-139.38;100.00;63230.50;5012251;28;20218;-64
2021/09/13 01:27:26;;;;;;;4.23;2.90;;;;;;;-139.38;100.00;63230.50;5014774;28;20212;-64
2021/09/13 01:30:52;;;;;;;4.03;2.40;;;;;;;-139.38;100.00;63230.50;5014903;28;20208;-64
2021/09/13 01:34:18;;;;;;;4.40;2.60;;;;;;;-139.38;100.00;63230.50;5010643;28;20203;-65
2021/09/13 01:37:43;;;;;;;3.87;2.67;;;;;;;-139.38;100.00;63230.50;5014289;28;20260;-65
2021/09/13 01:41:11;;;;;;;3.57;2.80;;;;;;;-139.38;100.00;63230.50;5014536;28;20203;-65
2021/09/13 01:44:19;;;;;;;3.67;2.97;;;;;;;-139.38;100.00;63230.50;5013041;28;20230;-64
2021/09/13 01:47:45;;;;;;;3.07;2.73;;;;;;;-139.38;100.00;63230.50;5011825;28;20207;-64
2021/09/13 01:51:11;;;;;;;3.20;2.30;;;;;;;-139.38;100.00;63230.50;5013997;28;20569;-64
2021/09/13 01:54:37;;;;;;;3.20;2.90;;;;;;;-139.38;100.00;63230.50;5014103;28;20207;-64
2021/09/13 01:58:04;;;;;;;3.20;2.90;;;;;;;-139.38;100.00;63230.50;5008633;28;20207;-64
2021/09/13 02:01:30;;;;;;;3.23;2.13;;;;;;;-139.38;100.00;63230.50;5011454;28;20242;-65
2021/09/13 02:04:56;;;;;;;4.77;2.50;;;;;;;-139.38;100.00;63230.50;5014287;28;20203;-64
2021/09/13 02:08:22;;;;;;;6.20;2.63;;;;;;;-139.38;100.00;63230.50;5010895;28;20591;-64
2021/09/13 02:11:47;;;;;;;3.10;2.33;;;;;;;-139.38;100.00;63230.50;5013648;28;20229;-64
2021/09/13 02:15:14;;;;;;;3.07;2.63;;;;;;;-139.38;100.00;63230.50;5014087;28;20214;-64
2021/09/13 02:18:40;;;;;;;3.07;2.63;;;;;;;-139.38;100.00;63230.50;5013452;28;20207;-65
2021/09/13 02:22:06;;;;;;;5.63;2.53;;;;;;;-139.38;100.00;63230.50;5013605;28;20711;-64
2021/09/13 02:25:32;;;;;;;5.63;2.80;;;;;;;-139.38;100.00;63230.50;5013751;28;20221;-65
2021/09/13 02:28:58;;;;;;;3.50;2.30;;;;;;;-139.38;100.00;63230.50;5013656;28;20572;-64
2021/09/13 02:32:25;;;;;;;4.20;2.57;;;;;;;-139.38;100.00;63230.50;5012638;28;20230;-65
2021/09/13 02:35:51;;;;;;;5.07;2.83;;;;;;;-139.38;100.00;63230.50;5012008;28;20207;-64
2021/09/13 02:39:16;;;;;;;6.47;2.60;;;;;;;-139.38;100.00;63230.50;5012755;28;20211;-64
2021/09/13 02:42:42;;;;;;;3.47;2.90;;;;;;;-139.38;100.00;63230.50;5013275;28;20226;-64
2021/09/13 02:46:09;;;;;;;4.00;2.93;;;;;;;-139.38;100.00;63230.50;5007879;28;20215;-65
2021/09/13 02:49:36;;;;;;;3.43;2.90;;;;;;;-139.38;100.00;63230.50;5012574;28;20294;-65
2021/09/13 02:53:02;;;;;;;6.80;3.50;;;;;;;-139.38;100.00;63230.50;5007387;28;20226;-65
2021/09/13 02:56:27;;;;;;;5.33;3.30;;;;;;;-139.38;100.00;63230.50;5010551;28;20207;-65
2021/09/13 02:59:53;;;;;;;3.60;2.80;;;;;;;-139.38;100.00;63230.50;5013285;28;20213;-65
2021/09/13 03:03:19;;;;;;;3.33;2.50;;;;;;;-139.38;100.00;63230.50;5012842;28;20235;-65
2021/09/13 03:06:46;;;;;;;9.60;3.17;;;;;;;-139.38;100.00;63230.50;5012696;28;20203;-65
2021/09/13 03:10:12;;;;;;;5.53;3.23;;;;;;;-139.38;100.00;63230.50;5013511;28;20203;-65
2021/09/13 03:13:38;;;;;;;6.20;3.30;;;;;;;-139.38;100.00;63230.50;5012550;28;20604;-65
2021/09/13 03:17:04;;;;;;;3.43;2.80;;;;;;;-139.38;100.00;63230.50;5012876;28;20207;-65
2021/09/13 03:20:30;;;;;;;3.80;2.73;;;;;;;-139.38;100.00;63230.50;5013012;28;20594;-65
2021/09/13 03:23:57;;;;;;;3.40;3.10;;;;;;;-139.38;100.00;63230.50;5014867;28;20223;-65
2021/09/13 03:27:23;;;;;;;7.60;3.53;;;;;;;-139.38;100.00;63230.50;5013340;28;20571;-65
2021/09/13 03:30:51;;;;;;;4.47;3.33;;;;;;;-139.38;100.00;63230.50;5012161;28;20583;-65
2021/09/13 03:34:16;;;;;;;4.00;3.17;;;;;;;-139.38;100.00;63230.50;5012259;28;20298;-65
2021/09/13 03:37:42;;;;;;;5.07;3.10;;;;;;;-139.38;100.00;63230.50;5012753;28;20207;-65
2021/09/13 03:41:10;;;;;;;5.87;3.37;;;;;;;-139.38;100.00;63230.50;5007181;28;20243;-65
2021/09/13 03:44:36;;;;;;;6.90;3.90;;;;;;;-139.38;100.00;63230.50;5010675;28;20226;-65
2021/09/13 03:48:02;;;;;;;5.93;3.30;;;;;;;-139.38;100.00;63230.50;5007320;28;20225;-65
2021/09/13 03:51:28;;;;;;;4.17;3.47;;;;;;;-139.38;100.00;63230.50;5009624;28;20730;-65
2021/09/13 03:54:53;;;;;;;4.40;2.70;;;;;;;-139.38;100.00;63230.50;5012550;28;20199;-65
2021/09/13 03:58:20;;;;;;;6.40;3.27;;;;;;;-139.38;100.00;63230.50;5012208;28;20210;-66
2021/09/13 04:01:46;;;;;;;5.77;3.23;;;;;;;-139.38;100.00;63230.50;5011686;28;20247;-65
2021/09/13 04:05:16;;;;;;;4.57;2.97;;;;;;;-139.38;100.00;63230.50;5011206;28;20703;-65
2021/09/13 04:08:59;;;;;;;7.67;3.17;;;;;;;-139.38;100.00;63230.50;5011485;28;20297;-65
2021/09/13 04:12:26;;;;;;;4.13;3.10;;;;;;;-139.38;100.00;63230.50;5012042;28;20598;-65
2021/09/13 04:15:52;;;;;;;6.03;3.30;;;;;;;-139.38;100.00;63230.50;5010916;28;20212;-66
2021/09/13 04:19:18;;;;;;;5.13;3.37;;;;;;;-139.38;100.00;63230.50;5010804;28;20593;-65
2021/09/13 04:22:44;;;;;;;5.77;3.40;;;;;;;-139.38;100.00;63230.50;5011839;28;20238;-65
2021/09/13 04:26:10;;;;;;;4.83;3.50;;;;;;;-139.38;100.00;63230.50;5012196;28;20204;-65
2021/09/13 04:29:37;;;;;;;5.80;3.50;;;;;;;-139.38;100.00;63230.50;5009825;28;20212;-64
2021/09/13 04:33:03;;;;;;;3.87;3.47;;;;;;;-139.38;100.00;63230.50;5011131;28;20685;-65
2021/09/13 04:36:29;;;;;;;6.10;3.60;;;;;;;-139.38;100.00;63230.50;5009401;28;20207;-65
2021/09/13 04:39:54;;;;;;;5.93;4.03;;;;;;;-139.38;100.00;63230.50;5011364;28;20211;-65
2021/09/13 04:42:22;;;;;;;6.97;3.70;;;;;;;29.02;48.62;98088.88;5011540;28;20231;-66
2021/09/13 04:44:50;;;;;;;5.93;3.60;;;;;;;28.65;50.34;98083.84;5010956;28;20591;-65
2021/09/13 04:47:18;;;;;;;6.63;3.87;;;;;;;28.32;51.11;98083.28;5011057;28;20210;-65
2021/09/13 04:49:45;;;;;;;6.77;4.00;;;;;;;28.82;49.58;98079.25;5011479;28;20571;-65
2021/09/13 04:52:12;;;;;;;5.93;3.63;;;;;;;28.57;50.26;98084.59;5011579;28;20707;-65
2021/09/13 04:54:39;;;;;;;5.80;3.90;;;;;;;28.73;49.45;98083.88;5010437;28;20207;-65
2021/09/13 04:57:07;;;;;;;5.17;3.90;;;;;;;28.75;49.15;98089.06;5011714;28;20215;-65
2021/09/13 04:59:34;;;;;;;6.97;3.90;;;;;;;28.76;49.45;98082.44;5010463;28;20218;-65
2021/09/13 05:02:03;;;;;;;5.87;4.23;;;;;;;28.75;49.25;98089.06;5011182;28;20241;-65
2021/09/13 05:04:30;;;;;;;6.23;3.70;;;;;;;28.55;50.38;98086.84;5010862;28;20242;-66
2021/09/13 05:06:57;;;;;;;10.37;4.10;;;;;;;28.66;50.29;98082.72;5011584;28;20203;-66
2021/09/13 05:09:26;;;;;;;5.77;3.70;;;;;;;28.21;51.59;98078.34;5011167;28;20540;-66
2021/09/13 05:11:53;;;;;;;5.50;4.30;;;;;;;28.66;50.37;98079.97;5011045;28;20718;-66
2021/09/13 05:14:20;;;;;;;8.33;4.40;;;;;;;28.69;50.71;98079.34;5010773;28;20205;-66
2021/09/13 05:16:48;;;;;;;5.73;4.50;;;;;;;28.74;50.83;98081.94;5011149;28;20690;-66
2021/09/13 05:19:16;;;;;;;7.57;5.17;;;;;;;28.88;50.08;98093.66;5011892;28;20217;-66
2021/09/13 05:21:44;;;;;;;6.87;4.97;;;;;;;28.43;51.71;98090.16;5016012;28;20227;-66
2021/09/13 05:24:11;;;;;;;14.53;5.23;;;;;;;29.02;49.82;98095.19;5010985;28;20234;-66
2021/09/13 05:26:41;;;;;;;9.70;4.93;;;;;;;28.85;50.20;98094.28;5011505;28;20207;-65
2021/09/13 05:29:08;;;;;;;7.40;4.47;;;;;;;29.12;49.70;98094.91;5011233;28;20239;-65
2021/09/13 05:31:35;;;;;;;7.17;4.30;;;;;;;29.21;49.35;98101.25;5011621;28;20234;-66
2021/09/13 05:34:03;;;;;;;7.30;5.00;;;;;;;29.01;49.97;98098.25;5011283;28;20202;-70
2021/09/13 05:36:31;;;;;;;6.87;5.10;;;;;;;28.99;50.31;98103.28;5008767;28;20317;-68
2021/09/13 05:38:59;;;;;;;7.90;5.00;;;;;;;28.98;50.55;98105.19;5007615;28;20215;-69
2021/09/13 05:42:25;;;;;;;9.60;4.90;;;;;;;-139.38;100.00;63230.50;4996904;28;20223;-67
2021/09/13 05:45:52;;;;;;;7.87;4.80;;;;;;;-139.38;100.00;63230.50;5003945;28;20230;-66
2021/09/13 05:49:18;;;;;;;7.23;4.67;;;;;;;-139.38;100.00;63230.50;5009987;28;20259;-66
2021/09/13 05:52:45;;;;;;;6.67;4.30;;;;;;;-139.38;100.00;63230.50;5010617;28;20242;-67
2021/09/13 05:55:12;;;;;;;7.03;4.13;;;;;;;30.53;46.18;98119.72;5006111;28;20206;-66
2021/09/13 05:57:40;;;;;;;7.33;4.87;;;;;;;29.75;47.72;98119.22;5008068;28;20727;-68
2021/09/13 06:00:08;;;;;;;5.97;4.47;;;;;;;30.16;47.45;98116.84;5000882;28;20209;-67
2021/09/13 06:02:35;;;;;;;7.30;4.47;;;;;;;30.36;46.91;98119.72;5010887;28;20577;-68
2021/09/13 06:05:02;;;;;;;7.97;4.83;;;;;;;30.43;46.72;98114.56;5011116;28;20233;-67
2021/09/13 06:07:31;;;;;;;7.50;4.30;;;;;;;30.65;46.05;98121.81;5016426;28;20827;-67
2021/09/13 06:09:59;;;;;;;6.33;4.53;;;;;;;30.82;45.98;98117.06;5005492;28;20569;-68
2021/09/13 06:12:26;;;;;;;8.47;4.40;;;;;;;30.92;45.42;98121.44;5011054;28;20224;-66
2021/09/13 06:14:55;;;;;;;6.37;4.70;;;;;;;31.30;44.90;98125.03;5004814;28;20300;-75
2021/09/13 06:17:23;;;;;;;6.37;4.47;;;;;;;31.07;44.86;98120.91;5012490;28;20208;-66
2021/09/13 06:19:50;;;;;;;6.63;4.63;;;;;;;30.21;47.65;98117.47;5005804;28;20228;-67
2021/09/13 06:22:17;;;;;;;5.57;4.17;;;;;;;31.13;44.62;98136.13;5013820;28;20239;-72
2021/09/13 06:24:46;;;;;;;7.50;5.27;;;;;;;30.99;44.78;98133.56;5012830;28;20908;-66
2021/09/13 06:27:13;;;;;;;7.03;4.37;;;;;;;29.92;47.50;98125.56;5015629;28;20684;-66
2021/09/13 06:29:41;;;;;;;7.53;4.97;;;;;;;30.60;45.96;98124.75;5012326;28;20204;-66
2021/09/13 06:32:09;;;;;;;8.30;5.00;;;;;;;29.66;46.68;98135.72;5011138;28;20319;-66
2021/09/13 06:34:36;;;;;;;9.03;4.97;;;;;;;28.44;51.32;98118.44;5012513;28;20653;-66
2021/09/13 06:37:03;;;;;;;7.30;4.30;;;;;;;30.85;45.03;98135.72;5011591;28;20608;-65
2021/09/13 06:39:31;;;;;;;6.93;4.63;;;;;;;31.14;43.91;98138.53;5011937;28;20243;-67
2021/09/13 06:41:59;;;;;;;11.13;5.37;;;;;;;30.28;44.96;98141.78;5012142;28;20705;-66
2021/09/13 06:44:29;;;;;;;6.20;4.40;;;;;;;31.20;43.81;98133.66;5020272;28;20256;-66
2021/09/13 06:47:07;;;;;;;6.73;4.90;;;;;;;31.73;42.68;98136.66;5013017;28;20213;-66
2021/09/13 06:49:35;;;;;;;8.97;4.70;;;;;;;31.77;42.35;98140.41;5012281;28;20248;-66
2021/09/13 06:52:04;;;;;;;9.13;4.40;;;;;;;32.09;42.00;98134.16;5016970;28;20236;-66
2021/09/13 06:54:32;;;;;;;6.07;4.33;;;;;;;32.16;41.59;98148.22;5012221;28;20206;-66
2021/09/13 06:57:02;;;;;;;7.63;4.30;;;;;;;32.21;41.56;98150.78;5013013;28;20209;-66
2021/09/13 06:59:29;;;;;;;5.47;4.70;;;;;;;32.54;40.87;98152.47;5010968;28;20210;-66
2021/09/13 07:01:56;;;;;;;6.43;4.47;;;;;;;32.39;40.55;98152.28;5011892;28;20231;-66
2021/09/13 07:04:24;;;;;;;6.73;4.83;;;;;;;32.53;40.10;98153.63;5013189;28;20227;-67
2021/09/13 07:06:52;;;;;;;7.73;4.50;;;;;;;32.40;40.83;98148.38;5013064;28;20260;-66
2021/09/13 07:09:19;;;;;;;6.93;4.43;;;;;;;32.57;40.11;98151.78;5011058;28;20277;-67
2021/09/13 07:11:46;;;;;;;8.37;4.50;;;;;;;32.24;40.53;98155.63;5011344;28;20227;-68
2021/09/13 07:14:15;;;;;;;8.23;5.37;;;;;;;31.94;40.83;98157.66;5013066;28;20208;-67
2021/09/13 07:16:42;;;;;;;10.03;4.30;;;;;;;32.07;40.37;98150.25;5011832;28;20215;-67
2021/09/13 07:19:10;;;;;;;8.50;5.07;;;;;;;31.48;41.18;98151.41;5006086;28;20737;-69
2021/09/13 07:21:37;;;;;;;11.77;5.00;;;;;;;30.51;44.52;98149.53;5011991;28;20231;-68
2021/09/13 07:24:05;;;;;;;5.87;4.40;;;;;;;32.18;41.18;98154.22;5008015;28;20753;-68
2021/09/13 07:26:32;;;;;;;6.37;4.80;;;;;;;30.79;43.91;98141.72;5012466;28;20219;-68
2021/09/13 07:28:59;;;;;;;6.37;4.63;;;;;;;32.20;40.64;98152.75;5012210;28;20206;-69
2021/09/13 07:31:28;;;;;;;6.90;5.10;;;;;;;29.91;47.66;98134.13;5012131;28;20242;-67
2021/09/13 07:33:55;;;;;;;8.07;4.47;;;;;;;29.65;47.26;98136.81;5011444;28;20211;-68
2021/09/13 07:36:22;;;;;;;9.13;5.07;;;;;;;28.89;49.69;98144.75;5012485;28;20215;-67
2021/09/13 07:38:50;;;;;;;6.60;5.17;;;;;;;30.32;46.60;98145.50;5007241;28;20203;-66
2021/09/13 07:41:17;;;;;;;9.97;5.57;;;;;;;31.28;43.77;98149.38;5012059;28;20231;-69
2021/09/13 07:43:44;;;;;;;8.57;5.00;;;;;;;31.94;42.24;98156.84;5011635;28;20590;-68
2021/09/13 07:46:14;;;;;;;9.73;5.30;;;;;;;32.84;40.42;98162.28;5011585;28;20210;-68
2021/09/13 07:48:43;;;;;;;8.43;5.27;;;;;;;33.17;39.03;98171.34;5011364;28;20608;-66
2021/09/13 07:51:10;;;;;;;10.30;4.63;;;;;;;33.09;39.19;98179.75;5011723;28;20285;-68
2021/09/13 07:53:37;;;;;;;8.10;4.60;;;;;;;33.60;38.10;98177.19;5004172;28;20220;-66
2021/09/13 07:56:05;;;;;;;8.67;4.80;;;;;;;33.06;39.46;98177.66;5007333;28;20203;-66
2021/09/13 07:58:32;;;;;;;8.40;4.53;;;;;;;31.17;42.45;98176.47;5010067;28;20214;-66
2021/09/13 08:01:00;;;;;;;7.70;5.20;;;;;;;30.14;46.15;98172.22;5011836;28;20241;-68
2021/09/13 08:03:27;;;;;;;8.50;4.90;;;;;;;31.43;42.92;98177.25;5010464;28;20218;-66
2021/09/13 08:05:56;;;;;;;7.97;5.00;;;;;;;31.28;43.89;98169.53;5011697;28;20203;-66
2021/09/13 08:08:23;;;;;;;7.33;5.40;;;;;;;31.91;41.45;98183.16;5011142;28;20207;-67
2021/09/13 08:10:50;;;;;;;8.23;5.50;;;;;;;31.28;42.98;98182.50;5007736;28;20224;-67
2021/09/13 08:13:17;;;;;;;8.80;5.20;;;;;;;32.34;40.96;98174.59;5010335;28;20676;-67
2021/09/13 08:15:46;;;;;;;8.37;4.67;;;;;;;33.76;37.29;98186.41;5011445;28;20207;-66
2021/09/13 08:18:13;;;;;;;7.30;4.73;;;;;;;33.56;37.43;98190.13;5012226;28;20211;-67
2021/09/13 08:20:41;;;;;;;6.17;4.10;;;;;;;30.10;44.74;98182.22;5011556;28;20226;-66
2021/09/13 08:23:09;;;;;;;6.53;4.47;;;;;;;33.15;38.63;98190.25;5008743;28;20215;-67
2021/09/13 08:25:37;;;;;;;5.53;4.20;;;;;;;32.26;39.61;98192.03;5012053;28;20235;-67
2021/09/13 08:28:04;;;;;;;5.40;3.97;;;;;;;33.03;39.15;98190.22;5011321;28;20211;-67
2021/09/13 08:30:32;;;;;;;6.47;4.00;;;;;;;30.24;43.34;98196.69;5006181;28;20228;-67
2021/09/13 08:32:59;;;;;;;5.50;3.90;;;;;;;30.96;42.47;98194.09;5013852;28;20214;-66
2021/09/13 08:35:27;;;;;;;7.27;3.67;;;;;;;31.21;40.93;98202.31;5010246;28;20262;-67
2021/09/13 08:37:54;;;;;;;6.27;3.40;;;;;;;33.43;38.24;98187.66;5003204;28;20207;-67
2021/09/13 08:40:23;;;;;;;5.80;3.40;;;;;;;34.42;35.51;98186.94;5002505;28;20208;-67
2021/09/13 08:42:52;;;;;;;5.70;3.30;;;;;;;34.44;35.13;98199.28;5003817;28;20206;-67
2021/09/13 08:45:24;;;;;;;8.10;3.47;;;;;;;32.87;37.94;98205.03;5010929;28;20234;-67
2021/09/13 08:48:00;;;;;;;5.00;3.50;;;;;;;33.30;37.83;98197.13;5001393;28;20303;-67
2021/09/13 08:50:36;;;;;;;4.33;3.13;;;;;;;34.42;34.93;98207.13;5002650;28;20571;-68
2021/09/13 08:53:04;;;;;;;4.87;3.10;;;;;;;34.38;35.52;98207.41;5001177;28;20214;-67
2021/09/13 08:55:33;;;;;;;7.43;3.27;;;;;;;34.75;34.78;98210.50;5003457;28;20205;-67
2021/09/13 08:58:00;;;;;;;5.63;3.63;;;;;;;34.26;36.34;98202.66;5002076;28;20225;-67
2021/09/13 09:00:28;;;;;;;8.33;3.90;;;;;;;33.38;37.41;98197.00;5002820;28;20788;-67
2021/09/13 09:02:55;;;;;;;4.60;3.43;;;;;;;34.55;36.39;98200.41;5005007;28;20215;-68
2021/09/13 09:05:23;;;;;;;6.30;3.53;;;;;;;35.15;33.94;98209.66;5010608;28;20321;-68
2021/09/13 09:07:51;;;;;;;6.03;3.30;;;;;;;34.18;34.64;98214.69;5008974;28;20248;-68
2021/09/13 09:10:23;;;;;;;7.03;3.43;;;;;;;31.31;40.88;98204.69;5005032;28;20213;-67
2021/09/13 09:13:00;;;;;;;7.40;3.80;;;;;;;33.93;37.18;98202.00;4997995;28;20220;-68
2021/09/13 09:15:28;;;;;;;3.97;2.70;;;;;;;35.31;34.56;98213.28;4999070;28;20293;-67
2021/09/13 09:17:57;;;;;;;4.67;3.60;;;;;;;34.90;35.55;98197.06;5006358;28;20234;-68
2021/09/13 09:20:25;;;;;;;5.47;3.47;;;;;;;31.47;40.60;98202.22;5005255;28;20222;-67
2021/09/13 09:23:03;;;;;;;6.07;3.63;;;;;;;31.28;42.02;98194.34;5001582;28;20204;-68
2021/09/13 09:25:32;;;;;;;5.97;3.60;;;;;;;34.73;35.77;98201.75;5008288;28;20242;-70
2021/09/13 09:28:03;;;;;;;5.77;3.20;;;;;;;34.24;36.05;98196.66;5011886;28;20218;-74
2021/09/13 09:30:36;;;;;;;7.33;3.30;;;;;;;34.38;35.77;98192.38;5013479;28;20231;-66
2021/09/13 09:33:07;;;;;;;4.40;3.33;;;;;;;35.03;35.02;98193.88;5008805;28;20229;-68
2021/09/13 09:35:43;;;;;;;5.03;3.80;;;;;;;31.79;40.93;98182.28;5011419;28;20203;-66
2021/09/13 09:38:28;;;;;;;5.30;3.43;;;;;;;34.70;35.66;98177.47;5009129;28;20667;-66
2021/09/13 09:41:07;;;;;;;4.17;3.27;;;;;;;34.94;35.73;98184.91;5010450;28;20714;-67
2021/09/13 09:43:52;;;;;;;6.80;3.73;;;;;;;33.64;38.19;98178.09;5009102;28;20213;-66
2021/09/13 09:46:19;;;;;;;4.27;3.10;;;;;;;34.67;35.50;98186.47;5011017;28;20229;-66
2021/09/13 09:48:47;;;;;;;4.87;2.83;;;;;;;36.11;32.50;98198.66;5013348;28;20550;-67
2021/09/13 09:51:28;;;;;;;4.80;3.10;;;;;;;35.94;32.82;98201.84;5010686;28;20257;-68
2021/09/13 09:53:56;;;;;;;4.18;3.15;;;;;;;34.05;35.95;98196.47;5004244;28;20210;-67
2021/09/13 09:56:27;;;;;;;5.20;3.17;;;;;;;34.52;35.41;98187.22;5004396;28;20290;-66
2021/09/13 09:59:05;;;;;;;6.97;3.35;;;;;;;34.34;35.11;98190.66;5006193;28;20231;-67
2021/09/13 10:01:38;;;;;;;4.43;2.83;;;;;;;34.54;35.71;98176.63;5012482;28;20737;-67
2021/09/13 10:04:20;;;;;;;4.70;2.80;;;;;;;34.38;35.89;98180.47;5010678;28;20675;-67
2021/09/13 10:06:50;;;;;;;5.65;3.28;;;;;;;34.02;36.45;98175.00;5014204;28;20563;-67
2021/09/13 10:09:18;;;;;;;4.60;3.03;;;;;;;32.28;39.13;98170.44;5013592;28;20249;-66
2021/09/13 10:11:46;;;;;;;3.75;3.05;;;;;;;33.74;38.94;98168.53;5009465;28;20609;-67
2021/09/13 10:14:17;;;;;;;6.18;2.88;;;;;;;34.83;35.75;98171.88;5009619;28;20206;-66
2021/09/13 10:16:49;;;;;;;5.10;3.25;;;;;;;34.49;35.96;98176.88;5010977;28;20217;-66
2021/09/13 10:19:18;;;;;;;5.40;3.45;;;;;;;32.28;40.39;98156.63;5008938;28;20246;-65
2021/09/13 10:21:45;;;;;;;7.97;3.47;;;;;;;33.14;38.69;98157.41;5007146;28;20231;-66
2021/09/13 10:24:14;;;;;;;8.00;3.07;;;;;;;34.64;36.08;98164.22;5008973;28;20214;-66
2021/09/13 10:26:45;;;;;;;5.18;2.97;;;;;;;35.45;33.59;98172.00;5006909;28;20582;-68
2021/09/13 10:29:24;;;;;;;4.20;3.28;;;;;;;33.98;36.54;98151.91;5012526;28;20203;-65
2021/09/13 10:32:03;;;;;;;5.95;2.95;;;;;;;34.86;35.18;98154.56;5007644;28;20228;-66
2021/09/13 10:34:33;;;;;;;4.78;2.90;;;;;;;34.70;35.05;98154.47;5010687;28;20211;-65
2021/09/13 10:37:08;;;;;;;5.20;3.30;;;;;;;35.00;34.16;98154.94;5012168;28;20572;-68
2021/09/13 10:39:56;;;;;;;5.13;3.38;;;;;;;35.60;34.34;98154.53;5008196;28;20215;-66
2021/09/13 10:42:47;;;;;;;3.63;2.97;;;;;;;35.29;33.47;98154.53;5013659;28;20602;-73
2021/09/13 10:45:18;;;;;;;5.30;2.85;;;;;;;34.82;34.38;98157.22;4990546;28;20568;-75
2021/09/13 10:47:46;;;;;;;3.83;2.70;;;;;;;34.46;nan;98151.81;5009261;28;20211;-77
2021/09/13 10:50:19;;;;;;;5.00;3.30;;;;;;;34.81;34.97;98140.94;5008298;28;20214;-80
2021/09/13 10:52:48;;;;;;;7.85;3.42;;;;;;;35.93;32.58;98155.78;5011175;28;20200;-74
2021/09/13 10:55:24;;;;;;;5.30;3.50;;;;;;;36.33;31.66;98150.75;5012798;28;20222;-73
2021/09/13 10:58:00;;;;;;;4.00;3.22;;;;;;;35.25;33.08;98142.56;5005912;28;20211;-82
2021/09/13 11:00:54;;;;;;;4.70;2.92;;;;;;;34.78;34.00;98136.91;5010036;28;20243;-75
2021/09/13 11:03:41;;;;;;;4.15;2.92;;;;;;;33.31;38.18;98118.47;5010101;28;20571;-73
2021/09/13 11:06:28;;;;;;;4.57;3.30;;;;;;;35.55;34.01;98127.03;5011350;28;20234;-73
2021/09/13 11:08:56;;;;;;;4.00;3.20;;;;;;;34.90;34.42;98131.28;5007095;28;20207;-72
2021/09/13 11:11:26;;;;;;;4.50;2.97;;;;;;;36.65;31.90;98129.97;5009638;28;20251;-78
2021/09/13 11:13:58;;;;;;;4.18;2.60;;;;;;;36.09;33.77;98119.56;5003712;28;20210;-72
2021/09/13 11:16:27;;;;;;;4.28;3.03;;;;;;;35.47;33.45;98128.03;5010492;28;20207;-72
2021/09/13 11:18:55;;;;;;;4.97;2.92;;;;;;;34.91;35.13;98119.03;5006630;28;20804;-72
2021/09/13 11:21:25;;;;;;;4.88;2.92;;;;;;;36.22;33.27;98121.88;5016328;28;20227;-72
2021/09/13 11:23:55;;;;;;;5.88;3.45;;;;;;;34.06;36.93;98109.44;5003831;28;20212;-71
2021/09/13 11:26:31;;;;;;;3.17;2.88;;;;;;;34.82;34.75;98103.72;5011689;28;20608;-74
2021/09/13 11:29:00;;;;;;;3.85;2.90;;;;;;;34.10;35.96;98102.81;5002804;28;20211;-78
2021/09/13 11:31:35;;;;;;;3.78;2.92;;;;;;;34.72;35.34;98105.03;5011297;28;20227;-70
2021/09/13 11:34:04;;;;;;;5.18;3.10;;;;;;;33.93;37.15;98099.53;5005040;28;20208;-71
2021/09/13 11:36:32;;;;;;;4.47;3.10;;;;;;;35.81;32.98;98105.06;5010840;28;20269;-72
2021/09/13 11:39:03;;;;;;;5.57;2.95;;;;;;;35.53;32.48;98107.97;5010756;28;20211;-73
2021/09/13 11:41:30;;;;;;;7.72;2.92;;;;;;;33.51;36.63;98093.47;5011882;28;20227;-73
2021/09/13 11:44:04;;;;;;;2.97;2.65;;;;;;;33.56;37.64;98089.66;5011286;28;20206;-73
2021/09/13 11:46:49;;;;;;;5.95;3.00;;;;;;;33.88;36.32;98092.28;5002448;28;20230;-73
2021/09/13 11:49:18;;;;;;;4.55;2.80;;;;;;;33.71;36.02;98098.03;5009833;28;20211;-71
2021/09/13 11:52:22;;;;;;;2.75;2.50;;;;;;;34.59;34.52;98101.50;5002937;28;20234;-71
2021/09/13 11:54:54;;;;;;;4.13;2.70;;;;;;;36.57;32.17;98097.59;4933854;29;20578;-72
2021/09/13 11:57:39;;;;;;;3.10;2.78;;;;;;;35.40;32.60;98100.09;4931045;29;20228;-71
2021/09/13 12:00:13;;;;;;;3.13;2.83;;;;;;;36.74;31.09;98099.13;4972514;28;20207;-71
2021/09/13 12:02:43;;;;;;;2.42;2.22;;;;;;;33.76;35.42;98097.78;5005881;28;20211;-72
2021/09/13 12:05:13;;;;;;;2.95;2.65;;;;;;;35.23;32.66;98107.56;5008684;28;20313;-71
2021/09/13 12:07:42;;;;;;;5.55;2.60;;;;;;;34.55;34.85;98102.56;5005077;28;20663;-71
2021/09/13 12:10:10;;;;;;;3.22;2.70;;;;;;;35.27;33.82;98091.06;5011158;28;20210;-72
2021/09/13 12:12:42;;;;;;;4.13;2.67;;;;;;;34.35;34.68;98092.50;5005778;28;20208;-71
2021/09/13 12:15:11;;;;;;;3.80;2.60;;;;;;;35.05;34.88;98090.84;5004433;28;20208;-72
2021/09/13 12:17:42;;;;;;;5.78;2.78;;;;;;;35.05;32.96;98091.66;5009061;28;20203;-72
2021/09/13 12:20:14;;;;;;;3.13;2.58;;;;;;;34.87;33.39;98092.34;5012310;28;20207;-73
2021/09/13 12:22:42;;;;;;;3.08;2.50;;;;;;;34.29;34.04;98091.13;5013175;28;20221;-72
2021/09/13 12:25:14;;;;;;;3.03;2.35;;;;;;;34.30;33.42;98087.22;5009717;28;20241;-72
2021/09/13 12:27:43;;;;;;;2.83;2.58;;;;;;;35.30;32.37;98084.00;5006579;28;20219;-72
2021/09/13 12:30:19;;;;;;;2.83;2.42;;;;;;;35.45;31.33;98094.28;5006404;28;20207;-73
2021/09/13 12:32:54;;;;;;;2.40;2.20;;;;;;;35.51;30.66;98092.81;5006367;28;20215;-72
2021/09/13 12:35:54;;;;;;;5.20;2.30;;;;;;;36.69;29.86;98089.13;4999772;28;20214;-72
2021/09/13 12:38:26;;;;;;;2.67;2.33;;;;;;;36.38;29.86;98088.47;4990475;28;20208;-72
2021/09/13 12:41:01;;;;;;;3.80;2.58;;;;;;;35.44;30.95;98084.31;5006043;28;20620;-73
2021/09/13 12:43:36;;;;;;;2.80;2.50;;;;;;;36.49;29.77;98078.34;5006535;28;20207;-71
2021/09/13 12:46:12;;;;;;;5.32;2.60;;;;;;;36.50;29.50;98080.75;5008762;28;20231;-71
2021/09/13 12:48:47;;;;;;;5.10;2.42;;;;;;;34.38;33.08;98075.97;5008044;28;20219;-72
2021/09/13 12:51:19;;;;;;;2.97;2.30;;;;;;;34.89;31.96;98076.97;5002609;28;20227;-72
2021/09/13 12:54:00;;;;;;;3.00;2.38;;;;;;;35.55;30.98;98066.75;5007371;28;20212;-72
2021/09/13 12:56:34;;;;;;;2.60;2.30;;;;;;;35.31;30.72;98066.16;4997882;28;20234;-72
2021/09/13 12:59:11;;;;;;;4.45;2.40;;;;;;;35.99;31.45;98050.69;5005095;28;20208;-72
2021/09/13 13:01:40;;;;;;;3.78;2.30;;;;;;;35.40;31.44;98053.69;4997096;28;20238;-72